createdAt,value
2023-04-06T00:00:23.641Z,10.40
2023-04-06T00:02:50.930Z,9.60
2023-04-06T00:05:17.736Z,9.43
2023-04-06T00:07:44.566Z,11.07
2023-04-06T00:10:11.609Z,11.30
2023-04-06T00:12:38.297Z,8.70
2023-04-06T00:15:06.736Z,10.23
2023-04-06T00:17:33.538Z,10.52
2023-04-06T00:20:00.396Z,16.83
2023-04-06T00:22:27.279Z,12.40
2023-04-06T00:24:54.084Z,9.98
2023-04-06T00:27:20.974Z,10.50
2023-04-06T00:29:47.792Z,9.75
2023-04-06T00:32:14.582Z,10.90
2023-04-06T00:34:41.580Z,10.52
2023-04-06T00:37:08.375Z,11.32
2023-04-06T00:39:35.174Z,9.00
2023-04-06T00:42:08.431Z,10.77
2023-04-06T00:44:35.335Z,8.95
2023-04-06T00:47:02.148Z,8.77
2023-04-06T00:49:28.987Z,8.55
2023-04-06T00:51:55.883Z,8.85
2023-04-06T00:54:22.714Z,10.00
2023-04-06T00:56:49.510Z,10.43
2023-04-06T00:59:16.890Z,11.07
2023-04-06T01:01:43.764Z,12.73
2023-04-06T01:04:10.959Z,11.27
2023-04-06T01:06:37.797Z,11.60
2023-04-06T01:09:04.695Z,10.68
2023-04-06T01:11:32.403Z,9.05
2023-04-06T01:13:59.283Z,10.48
2023-04-06T01:16:26.210Z,12.35
2023-04-06T01:18:53.118Z,10.02
2023-04-06T01:21:20.042Z,9.90
2023-04-06T01:23:47.357Z,9.95
2023-04-06T01:26:14.647Z,10.48
2023-04-06T01:28:41.494Z,10.43
2023-04-06T01:31:09.798Z,8.18
2023-04-06T01:33:36.686Z,10.18
2023-04-06T01:36:04.797Z,11.75
2023-04-06T01:38:31.813Z,11.45
2023-04-06T01:40:59.007Z,12.35
2023-04-06T01:43:25.780Z,9.88
2023-04-06T01:45:52.628Z,11.80
2023-04-06T01:48:19.821Z,10.55
2023-04-06T01:50:46.892Z,12.68
2023-04-06T01:53:13.673Z,10.55
2023-04-06T01:55:40.513Z,11.32
2023-04-06T01:58:07.223Z,10.02
2023-04-06T02:00:34.163Z,10.93
2023-04-06T02:03:01.429Z,10.32
2023-04-06T02:05:30.866Z,11.00
2023-04-06T02:07:58.247Z,10.65
2023-04-06T02:10:25.413Z,9.98
2023-04-06T02:12:52.271Z,11.45
2023-04-06T02:15:19.025Z,10.20
2023-04-06T02:17:45.934Z,9.65
2023-04-06T02:20:13.049Z,11.15
2023-04-06T02:22:40.259Z,10.50
2023-04-06T02:25:07.555Z,14.32
2023-04-06T02:27:34.469Z,11.45
2023-04-06T02:30:01.406Z,11.07
2023-04-06T02:32:28.350Z,10.85
2023-04-06T02:34:55.330Z,13.50
2023-04-06T02:37:23.054Z,8.88
2023-04-06T02:39:49.791Z,11.88
2023-04-06T02:42:16.707Z,12.55
2023-04-06T02:44:43.912Z,10.75
2023-04-06T02:47:11.016Z,9.90
2023-04-06T02:49:37.808Z,8.30
2023-04-06T02:52:04.827Z,9.43
2023-04-06T02:54:31.595Z,11.18
2023-04-06T02:56:58.369Z,12.68
2023-04-06T02:59:25.608Z,10.15
2023-04-06T03:01:52.930Z,13.45
2023-04-06T03:04:19.752Z,11.10
2023-04-06T03:06:46.621Z,11.20
2023-04-06T03:09:15.135Z,14.20
2023-04-06T03:11:42.089Z,12.57
2023-04-06T03:14:08.914Z,12.40
2023-04-06T03:16:36.000Z,14.32
2023-04-06T03:19:02.729Z,10.18
2023-04-06T03:21:29.536Z,14.00
2023-04-06T03:23:56.360Z,12.60
2023-04-06T03:26:23.434Z,11.82
2023-04-06T03:28:50.260Z,16.02
2023-04-06T03:31:17.235Z,11.63
2023-04-06T03:33:51.386Z,11.70
2023-04-06T03:36:18.313Z,11.90
2023-04-06T03:38:45.364Z,12.27
2023-04-06T03:41:12.167Z,12.02
2023-04-06T03:43:38.960Z,11.55
2023-04-06T03:46:05.867Z,11.35
2023-04-06T03:48:32.645Z,10.40
2023-04-06T03:50:59.474Z,10.30
2023-04-06T03:53:26.251Z,9.02
2023-04-06T03:55:53.056Z,11.48
2023-04-06T03:58:19.851Z,11.05
2023-04-06T04:00:46.684Z,13.65
2023-04-06T04:03:13.570Z,11.75
2023-04-06T04:05:40.427Z,13.68
2023-04-06T04:08:07.215Z,13.02
2023-04-06T04:10:34.731Z,11.57
2023-04-06T04:13:01.454Z,13.57
2023-04-06T04:15:28.375Z,11.18
2023-04-06T04:17:55.339Z,11.05
2023-04-06T04:20:22.627Z,9.88
2023-04-06T04:22:49.576Z,10.43
2023-04-06T04:25:16.529Z,11.30
2023-04-06T04:27:43.297Z,12.88
2023-04-06T04:30:10.381Z,10.32
2023-04-06T04:32:37.560Z,11.82
2023-04-06T04:35:04.569Z,11.50
2023-04-06T04:37:31.746Z,13.05
2023-04-06T04:39:58.534Z,11.98
2023-04-06T04:42:25.348Z,12.48
2023-04-06T04:44:52.154Z,11.63
2023-04-06T04:47:19.022Z,10.60
2023-04-06T04:49:45.887Z,12.60
2023-04-06T04:52:12.708Z,12.35
2023-04-06T04:54:42.010Z,10.48
2023-04-06T04:57:08.850Z,11.93
2023-04-06T04:59:36.472Z,12.07
2023-04-06T05:02:03.435Z,14.38
2023-04-06T05:04:30.279Z,14.27
2023-04-06T05:07:08.034Z,10.13
2023-04-06T05:09:34.874Z,10.20
2023-04-06T05:12:02.281Z,13.43
2023-04-06T05:14:29.497Z,10.52
2023-04-06T05:16:56.331Z,11.35
2023-04-06T05:19:25.949Z,11.90
2023-04-06T05:21:52.855Z,11.45
2023-04-06T05:24:19.670Z,13.07
2023-04-06T05:26:46.609Z,14.80
2023-04-06T05:29:13.455Z,14.07
2023-04-06T05:31:40.413Z,14.45
2023-04-06T05:34:07.418Z,14.48
2023-04-06T05:36:34.333Z,13.68
2023-04-06T05:39:01.112Z,14.60
2023-04-06T05:41:28.080Z,12.68
2023-04-06T05:43:54.870Z,15.85
2023-04-06T05:46:21.819Z,13.85
2023-04-06T05:48:48.989Z,11.00
2023-04-06T05:51:15.913Z,14.07
2023-04-06T05:53:43.141Z,10.55
2023-04-06T05:56:10.015Z,12.10
2023-04-06T05:58:36.847Z,12.10
2023-04-06T06:01:05.673Z,11.00
2023-04-06T06:03:32.581Z,11.50
2023-04-06T06:06:05.960Z,11.68
2023-04-06T06:08:32.837Z,10.52
2023-04-06T06:10:59.701Z,14.73
2023-04-06T06:13:26.649Z,10.73
2023-04-06T06:15:53.483Z,8.82
2023-04-06T06:18:20.424Z,10.02
2023-04-06T06:20:47.257Z,11.48
2023-04-06T06:23:15.472Z,9.68
2023-04-06T06:25:42.234Z,11.43
2023-04-06T06:28:09.111Z,11.32
2023-04-06T06:30:35.992Z,10.50
2023-04-06T06:33:02.925Z,8.98
2023-04-06T06:35:29.949Z,10.45
2023-04-06T06:37:56.939Z,8.57
2023-04-06T06:40:25.136Z,7.90
2023-04-06T06:42:52.524Z,7.85
2023-04-06T06:45:19.721Z,8.60
2023-04-06T06:47:47.102Z,7.82
2023-04-06T06:50:14.117Z,8.80
2023-04-06T06:52:41.379Z,8.95
2023-04-06T06:55:09.433Z,9.25
2023-04-06T06:57:36.215Z,9.52
2023-04-06T07:00:03.623Z,9.25
2023-04-06T07:02:30.687Z,8.18
2023-04-06T07:04:57.970Z,8.80
2023-04-06T07:07:24.808Z,9.25
2023-04-06T07:09:51.629Z,9.88
2023-04-06T07:12:18.433Z,8.45
2023-04-06T07:14:45.287Z,7.32
2023-04-06T07:17:12.541Z,8.05
2023-04-06T07:19:39.460Z,9.95
2023-04-06T07:22:06.328Z,8.77
2023-04-06T07:24:33.187Z,10.10
2023-04-06T07:27:01.830Z,8.07
2023-04-06T07:29:28.853Z,8.38
2023-04-06T07:31:56.248Z,8.43
2023-04-06T07:34:23.482Z,8.60
2023-04-06T07:36:50.696Z,8.90
2023-04-06T07:39:17.513Z,9.13
2023-04-06T07:41:44.390Z,7.93
2023-04-06T07:44:11.241Z,9.48
2023-04-06T07:46:38.278Z,9.68
2023-04-06T07:49:05.374Z,10.05
2023-04-06T07:51:33.960Z,8.02
2023-04-06T07:54:03.153Z,10.05
2023-04-06T07:56:35.928Z,10.70
2023-04-06T07:59:03.930Z,10.38
2023-04-06T08:01:31.442Z,10.23
2023-04-06T08:03:58.420Z,9.68
2023-04-06T08:06:25.573Z,10.00
2023-04-06T08:08:52.475Z,9.95
2023-04-06T08:11:19.305Z,11.75
2023-04-06T08:13:46.135Z,10.15
2023-04-06T08:16:13.110Z,9.10
2023-04-06T08:18:40.084Z,12.15
2023-04-06T08:21:06.933Z,11.98
2023-04-06T08:23:33.873Z,15.07
2023-04-06T08:26:00.724Z,9.90
2023-04-06T08:28:27.668Z,11.65
2023-04-06T08:30:54.536Z,11.10
2023-04-06T08:33:21.529Z,12.25
2023-04-06T08:35:48.602Z,13.80
2023-04-06T08:38:15.520Z,12.57
2023-04-06T08:40:44.619Z,10.07
2023-04-06T08:43:16.784Z,9.85
2023-04-06T08:45:44.252Z,10.68
2023-04-06T08:48:13.440Z,8.88
2023-04-06T08:50:41.516Z,8.55
2023-04-06T08:53:09.279Z,7.95
2023-04-06T08:55:36.888Z,10.13
2023-04-06T08:58:07.707Z,8.43
2023-04-06T09:00:38.431Z,9.20
2023-04-06T09:03:07.565Z,8.73
2023-04-06T09:05:34.697Z,9.65
2023-04-06T09:08:01.588Z,9.77
2023-04-06T09:10:29.589Z,8.48
2023-04-06T09:13:09.909Z,8.57
2023-04-06T09:15:36.810Z,8.88
2023-04-06T09:18:03.638Z,8.68
2023-04-06T09:20:30.646Z,9.43
2023-04-06T09:22:57.789Z,9.13
2023-04-06T09:25:27.549Z,8.13
2023-04-06T09:28:05.491Z,8.57
2023-04-06T09:33:00.858Z,7.22
2023-04-06T09:35:28.455Z,8.55
2023-04-06T09:37:56.534Z,8.77
2023-04-06T09:40:23.630Z,6.70
2023-04-06T09:42:53.466Z,7.10
2023-04-06T09:45:21.835Z,7.28
2023-04-06T09:47:51.072Z,7.07
2023-04-06T09:50:20.683Z,7.93
2023-04-06T09:52:49.726Z,7.93
2023-04-06T09:55:27.118Z,5.35
2023-04-06T09:57:58.249Z,6.97
2023-04-06T10:00:27.318Z,4.97
2023-04-06T10:03:15.036Z,5.78
2023-04-06T10:05:47.918Z,6.40
2023-04-06T10:08:16.328Z,4.93
2023-04-06T10:10:44.129Z,5.50
2023-04-06T10:13:12.157Z,6.38
2023-04-06T10:15:43.492Z,5.07
2023-04-06T10:18:10.918Z,4.47
2023-04-06T10:20:56.809Z,4.15
2023-04-06T10:23:35.092Z,5.70
2023-04-06T10:26:05.931Z,5.38
2023-04-06T10:28:35.316Z,4.53
2023-04-06T10:31:05.878Z,4.57
2023-04-06T10:33:33.078Z,4.97
2023-04-06T10:36:14.128Z,3.78
2023-04-06T10:38:42.540Z,7.20
2023-04-06T10:41:13.118Z,4.18
2023-04-06T10:43:42.537Z,3.60
2023-04-06T10:46:12.893Z,5.30
2023-04-06T10:48:48.966Z,4.68
2023-04-06T10:51:17.262Z,5.13
2023-04-06T10:53:49.471Z,5.57
2023-04-06T10:56:18.869Z,4.10
2023-04-06T10:58:47.784Z,4.10
2023-04-06T11:01:19.485Z,3.30
2023-04-06T11:03:50.779Z,4.28
2023-04-06T11:08:49.076Z,3.22
2023-04-06T11:11:19.385Z,4.28
2023-04-06T11:13:54.412Z,5.00
2023-04-06T11:16:31.405Z,5.32
2023-04-06T11:19:03.192Z,6.18
2023-04-06T11:21:50.271Z,3.65
2023-04-06T11:24:22.582Z,4.38
2023-04-06T11:26:55.227Z,5.25
2023-04-06T11:29:27.574Z,3.50
2023-04-06T11:31:59.333Z,4.55
2023-04-06T11:34:26.945Z,5.85
2023-04-06T11:36:59.332Z,5.60
2023-04-06T11:39:28.347Z,4.20
2023-04-06T11:41:59.337Z,5.60
2023-04-06T11:44:41.180Z,5.28
2023-04-06T11:47:09.983Z,4.50
2023-04-06T11:49:46.081Z,6.78
2023-04-06T11:52:24.027Z,4.25
2023-04-06T11:54:53.384Z,5.70
2023-04-06T11:57:21.759Z,4.75
2023-04-06T11:59:48.815Z,6.22
2023-04-06T12:02:15.982Z,6.95
2023-04-06T12:04:42.916Z,5.38
2023-04-06T12:07:10.310Z,5.30
2023-04-06T12:09:41.115Z,5.50
2023-04-06T12:12:08.064Z,16.02
2023-04-06T12:14:34.853Z,5.82
2023-04-06T12:17:01.659Z,4.88
2023-04-06T12:19:29.936Z,5.07
2023-04-06T12:21:58.595Z,4.18
2023-04-06T12:24:25.878Z,5.05
2023-04-06T12:26:59.489Z,5.25
2023-04-06T12:29:30.264Z,3.85
2023-04-06T12:31:57.326Z,4.22
2023-04-06T12:34:24.338Z,3.63
2023-04-06T12:36:51.217Z,4.70
2023-04-06T12:39:21.660Z,5.20
2023-04-06T12:41:48.799Z,4.60
2023-04-06T12:44:15.722Z,5.93
2023-04-06T12:46:44.188Z,5.05
2023-04-06T12:49:11.277Z,4.30
2023-04-06T12:51:38.347Z,5.53
2023-04-06T12:54:05.321Z,4.53
2023-04-06T12:56:32.483Z,6.40
2023-04-06T12:59:00.208Z,4.38
2023-04-06T13:01:29.410Z,5.13
2023-04-06T13:04:00.574Z,4.65
2023-04-06T13:06:28.987Z,4.47
2023-04-06T13:08:56.559Z,4.63
2023-04-06T13:11:26.959Z,3.58
2023-04-06T13:16:21.907Z,4.15
2023-04-06T13:18:48.794Z,3.83
2023-04-06T13:21:17.364Z,5.65
2023-04-06T13:23:45.093Z,3.70
2023-04-06T13:26:14.406Z,4.80
2023-04-06T13:28:42.018Z,4.22
2023-04-06T13:31:10.941Z,3.60
2023-04-06T13:33:38.468Z,3.55
2023-04-06T13:36:07.974Z,4.13
2023-04-06T13:38:35.200Z,4.43
2023-04-06T13:41:02.292Z,3.97
2023-04-06T13:43:29.231Z,3.88
2023-04-06T13:45:57.069Z,4.47
2023-04-06T13:48:24.181Z,5.55
2023-04-06T13:50:51.366Z,4.45
2023-04-06T13:53:18.761Z,3.65
2023-04-06T13:55:53.793Z,5.88
2023-04-06T13:58:20.767Z,4.38
2023-04-06T14:00:47.639Z,4.78
2023-04-06T14:03:14.679Z,4.05
2023-04-06T14:05:41.653Z,3.63
2023-04-06T14:08:08.488Z,3.90
2023-04-06T14:10:43.455Z,4.03
2023-04-06T14:13:10.416Z,6.70
2023-04-06T14:15:37.228Z,3.88
2023-04-06T14:18:04.338Z,4.35
2023-04-06T14:20:34.268Z,3.15
2023-04-06T14:23:02.750Z,5.35
2023-04-06T14:25:32.421Z,4.18
2023-04-06T14:27:59.515Z,4.47
2023-04-06T14:30:26.647Z,5.00
2023-04-06T14:32:54.001Z,4.15
2023-04-06T14:35:20.818Z,2.80
2023-04-06T14:37:48.244Z,3.20
2023-04-06T14:40:15.390Z,3.40
2023-04-06T14:42:42.208Z,5.25
2023-04-06T14:45:09.374Z,3.20
2023-04-06T14:47:36.356Z,4.07
2023-04-06T14:50:03.468Z,4.18
2023-04-06T14:52:32.584Z,3.53
2023-04-06T14:54:59.836Z,3.20
2023-04-06T14:57:26.764Z,4.03
2023-04-06T14:59:55.392Z,3.22
2023-04-06T15:02:22.510Z,3.67
2023-04-06T15:04:49.462Z,4.00
2023-04-06T15:07:16.252Z,3.20
2023-04-06T15:09:43.501Z,5.20
2023-04-06T15:12:10.461Z,3.90
2023-04-06T15:14:37.514Z,2.72
2023-04-06T15:17:04.252Z,4.55
2023-04-06T15:19:31.045Z,4.03
2023-04-06T15:21:59.038Z,3.58
2023-04-06T15:24:27.065Z,3.42
2023-04-06T15:26:53.930Z,4.22
2023-04-06T15:29:21.740Z,4.15
2023-04-06T15:31:48.594Z,3.83
2023-04-06T15:34:15.622Z,3.95
2023-04-06T15:36:44.573Z,2.88
2023-04-06T15:39:11.656Z,3.15
2023-04-06T15:41:38.715Z,4.43
2023-04-06T15:44:05.759Z,5.03
2023-04-06T15:46:32.834Z,4.43
2023-04-06T15:48:59.984Z,3.25
2023-04-06T15:51:27.524Z,4.28
2023-04-06T15:53:54.364Z,3.67
2023-04-06T15:56:21.570Z,3.97
2023-04-06T15:58:48.772Z,4.80
2023-04-06T16:01:17.815Z,3.58
2023-04-06T16:03:45.385Z,4.30
2023-04-06T16:06:13.077Z,3.58
2023-04-06T16:08:41.425Z,3.85
2023-04-06T16:11:09.293Z,4.50
2023-04-06T16:13:37.044Z,4.35
2023-04-06T16:16:06.061Z,3.35
2023-04-06T16:18:35.828Z,3.35
2023-04-06T16:21:04.086Z,4.25
2023-04-06T16:23:31.255Z,5.22
2023-04-06T16:25:58.160Z,2.78
2023-04-06T16:28:25.724Z,4.65
2023-04-06T16:30:52.862Z,3.45
2023-04-06T16:33:19.880Z,4.25
2023-04-06T16:35:47.516Z,5.90
2023-04-06T16:38:15.069Z,4.25
2023-04-06T16:40:42.152Z,4.07
2023-04-06T16:43:11.324Z,5.18
2023-04-06T16:45:38.426Z,4.68
2023-04-06T16:48:09.054Z,4.45
2023-04-06T16:50:36.320Z,4.43
2023-04-06T16:53:03.267Z,4.10
2023-04-06T16:55:30.009Z,4.47
2023-04-06T16:57:57.062Z,4.70
2023-04-06T17:00:24.615Z,5.28
2023-04-06T17:02:51.588Z,4.82
2023-04-06T17:05:25.922Z,4.40
2023-04-06T17:07:53.818Z,4.70
2023-04-06T17:10:28.675Z,4.35
2023-04-06T17:13:00.403Z,3.63
2023-04-06T17:15:28.918Z,3.53
2023-04-06T17:17:55.688Z,4.43
2023-04-06T17:20:22.528Z,4.32
2023-04-06T17:22:49.642Z,5.40
2023-04-06T17:25:16.614Z,4.50
2023-04-06T17:27:44.025Z,2.90
2023-04-06T17:30:12.017Z,12.23
2023-04-06T17:32:38.964Z,5.45
2023-04-06T17:35:06.312Z,5.70
2023-04-06T17:37:33.098Z,4.00
2023-04-06T17:39:59.966Z,9.23
2023-04-06T17:42:27.501Z,6.70
2023-04-06T17:44:54.326Z,4.07
2023-04-06T17:47:21.211Z,5.07
2023-04-06T17:49:49.084Z,4.00
2023-04-06T17:52:16.036Z,5.43
2023-04-06T17:54:42.964Z,3.85
2023-04-06T17:57:09.738Z,4.82
2023-04-06T17:59:36.533Z,7.85
2023-04-06T18:02:04.262Z,6.25
2023-04-06T18:04:31.322Z,4.78
2023-04-06T18:06:58.199Z,5.05
2023-04-06T18:14:24.797Z,4.45
2023-04-06T18:16:52.165Z,7.75
2023-04-06T18:19:19.235Z,7.78
2023-04-06T18:21:46.152Z,6.95
2023-04-06T18:24:23.139Z,6.20
2023-04-06T18:26:59.597Z,4.90
2023-04-06T18:29:26.693Z,6.43
2023-04-06T18:31:55.037Z,4.18
2023-04-06T18:34:22.868Z,5.25
2023-04-06T18:36:49.630Z,4.70
2023-04-06T18:39:16.399Z,4.55
2023-04-06T18:41:43.349Z,4.45
2023-04-06T18:44:10.468Z,4.00
2023-04-06T18:46:39.149Z,4.25
2023-04-06T18:49:06.088Z,4.72
2023-04-06T18:51:33.355Z,4.47
2023-04-06T18:54:01.696Z,4.85
2023-04-06T18:56:28.701Z,5.00
2023-04-06T18:58:55.977Z,4.70
2023-04-06T19:01:25.596Z,4.38
2023-04-06T19:03:53.681Z,4.80
2023-04-06T19:06:21.514Z,5.00
2023-04-06T19:08:49.390Z,6.88
2023-04-06T19:11:16.677Z,7.47
2023-04-06T19:13:50.229Z,6.32
2023-04-06T19:16:18.152Z,6.40
2023-04-06T19:18:45.786Z,5.65
2023-04-06T19:21:23.268Z,5.13
2023-04-06T19:23:52.389Z,13.13
2023-04-06T19:26:20.039Z,4.97
2023-04-06T19:28:47.584Z,4.60
2023-04-06T19:31:16.461Z,4.55
2023-04-06T19:33:43.910Z,4.72
2023-04-06T19:36:10.890Z,5.78
2023-04-06T19:38:38.683Z,5.00
2023-04-06T19:41:05.560Z,7.50
2023-04-06T19:43:32.546Z,6.43
2023-04-06T19:45:59.544Z,6.57
2023-04-06T19:48:26.573Z,8.73
2023-04-06T19:50:57.200Z,9.68
2023-04-06T19:53:24.026Z,8.30
2023-04-06T19:55:51.511Z,7.53
2023-04-06T19:58:18.950Z,8.10
2023-04-06T20:00:46.021Z,10.63
2023-04-06T20:03:13.101Z,9.95
2023-04-06T20:05:40.204Z,12.88
2023-04-06T20:08:07.528Z,11.32
2023-04-06T20:10:34.576Z,9.15
2023-04-06T20:13:01.500Z,8.38
2023-04-06T20:15:28.704Z,7.95
2023-04-06T20:17:55.569Z,8.52
2023-04-06T20:20:22.461Z,11.07
2023-04-06T20:22:50.249Z,9.02
2023-04-06T20:25:18.411Z,9.70
2023-04-06T20:27:45.678Z,9.32
2023-04-06T20:30:16.723Z,12.00
2023-04-06T20:32:43.736Z,9.88
2023-04-06T20:35:11.044Z,10.68
2023-04-06T20:37:37.958Z,14.13
2023-04-06T20:40:05.489Z,12.07
2023-04-06T20:42:32.325Z,11.85
2023-04-06T20:44:59.475Z,13.90
2023-04-06T20:47:27.165Z,9.93
2023-04-06T20:49:54.073Z,10.27
2023-04-06T20:52:20.973Z,12.07
2023-04-06T20:54:48.532Z,9.98
2023-04-06T20:57:15.448Z,9.75
2023-04-06T20:59:42.536Z,11.23
2023-04-06T21:02:09.481Z,9.73
2023-04-06T21:04:37.369Z,11.52
2023-04-06T21:07:05.616Z,8.02
2023-04-06T21:09:38.530Z,11.52
2023-04-06T21:12:06.167Z,9.57
2023-04-06T21:14:33.322Z,12.88
2023-04-06T21:17:00.734Z,12.05
2023-04-06T21:19:27.685Z,10.48
2023-04-06T21:21:55.022Z,9.75
2023-04-06T21:24:21.797Z,9.90
2023-04-06T21:26:48.535Z,9.85
2023-04-06T21:29:15.312Z,9.60
2023-04-06T21:31:42.689Z,9.55
2023-04-06T21:34:10.773Z,11.27
2023-04-06T21:36:38.446Z,10.68
2023-04-06T21:39:06.055Z,12.05
2023-04-06T21:41:33.796Z,9.38
2023-04-06T21:44:00.776Z,10.07
2023-04-06T21:46:27.622Z,9.70
2023-04-06T21:48:54.460Z,10.32
2023-04-06T21:51:23.036Z,9.70
2023-04-06T21:53:50.264Z,12.95
2023-04-06T21:56:24.914Z,11.88
2023-04-06T21:58:53.054Z,10.57
2023-04-06T22:01:20.419Z,11.15
2023-04-06T22:03:47.510Z,9.05
2023-04-06T22:06:14.505Z,10.05
2023-04-06T22:08:41.314Z,11.05
2023-04-06T22:11:09.759Z,8.77
2023-04-06T22:13:37.804Z,11.90
2023-04-06T22:16:05.368Z,12.20
2023-04-06T22:18:32.232Z,11.45
2023-04-06T22:20:59.621Z,8.60
2023-04-06T22:23:26.508Z,8.55
2023-04-06T22:25:53.474Z,10.82
2023-04-06T22:28:20.307Z,9.77
2023-04-06T22:30:47.122Z,10.70
2023-04-06T22:33:13.993Z,10.50
2023-04-06T22:35:40.986Z,9.27
2023-04-06T22:38:07.974Z,10.15
2023-04-06T22:40:34.705Z,8.35
2023-04-06T22:43:01.472Z,8.30
2023-04-06T22:45:28.295Z,9.57
2023-04-06T22:47:55.115Z,10.90
2023-04-06T22:50:22.471Z,9.90
2023-04-06T22:52:49.380Z,10.38
2023-04-06T22:55:16.320Z,8.95
2023-04-06T22:57:43.121Z,10.27
2023-04-06T23:00:10.660Z,9.05
2023-04-06T23:02:37.792Z,10.52
2023-04-06T23:05:04.948Z,9.40
2023-04-06T23:07:32.770Z,12.57
2023-04-06T23:09:59.839Z,12.00
2023-04-06T23:12:26.636Z,10.73
2023-04-06T23:14:54.029Z,8.88
2023-04-06T23:17:20.869Z,9.80
2023-04-06T23:19:47.809Z,10.00
2023-04-06T23:22:14.614Z,9.10
2023-04-06T23:24:41.492Z,9.55
2023-04-06T23:27:08.467Z,9.23
2023-04-06T23:29:35.336Z,9.65
2023-04-06T23:32:02.205Z,10.20
2023-04-06T23:34:29.083Z,8.98
2023-04-06T23:36:55.892Z,10.80
2023-04-06T23:39:22.696Z,10.07
2023-04-06T23:41:49.444Z,9.27
2023-04-06T23:44:16.311Z,8.43
2023-04-06T23:46:43.160Z,11.18
2023-04-06T23:49:09.922Z,9.48
2023-04-06T23:51:36.648Z,11.73
2023-04-06T23:54:04.914Z,11.50
2023-04-06T23:56:31.900Z,12.48
2023-04-06T23:58:58.695Z,10.02
